ETEB 060856Z AUTO 00000KT 9999 CLR 13/01 A3022 RMK AO2 SLP250 T01330013 52014 $ EDMA 060920Z 23003KT 160V320 CAVOK 14/03 Q1024 ETIK 060856Z AUTO 00000KT 9999 CLR 14/03 A3024 RMK AO2 SLP247 T01370032 52012 EDDT 060920Z 16012KT CAVOK 16/M01 Q1024 NOSIG LSZB 060920Z 35005KT 300V020 CAVOK 14/02 Q1024 NOSIG LIPB 060850Z VRB02KT CAVOK 13/01 Q1029 RMK MON LIB EDVE 060920Z 18007KT 140V230 CAVOK 16/00 Q1021 EDDW 060920Z 14009KT CAVOK 15/03 Q1019 NOSIG LFMD 060930Z AUTO 15004KT 060V210 CAVOK 21/01 Q1025 EDLW 060920Z AUTO 18014KT 150V210 9999 // NCD 19/02 Q1019 EDDC 060920Z 17012KT 140V210 CAVOK 16/M01 Q1024 TEMPO 15015G25KT EDDL 060920Z 17012KT 120V190 CAVOK 18/04 Q1019 NOSIG EDDE 060920Z 01003KT 330V080 CAVOK 14/03 Q1022 NOSIG LIRQ 060920Z 03012KT 360V060 CAVOK 20/03 Q1024 EDDF 060920Z 21005KT 140V270 CAVOK 15/02 Q1023 NOSIG EDNY 060920Z VRB02KT CAVOK 14/04 Q1024 ETHF 060920Z 15008KT 9999 15/02 Q1022 BLU+BLU+ LIMJ 060920Z 02011KT 360V060 CAVOK 20/01 Q1025 ETIC 060856Z AUTO 10004KT 9999 CLR 13/M01 A3021 RMK AO2 SLP232 T01321008 51007 $ LOWG 060920Z VRB03KT 9999 FEW060 14/M00 Q1030 NOSIG EDDH 060920Z 15010KT CAVOK 15/03 Q1020 NOSIG EDDV 060920Z 16007KT 120V200 CAVOK 16/01 Q1020 NOSIG EDQM 060920Z 18005KT 140V300 CAVOK 13/M01 Q1023 ETIH 060856Z AUTO 12005KT 9999 CLR 14/M01 A3023 RMK AO2 SLP245 T01361012 51007 ETSI 060920Z 28006KT 9999 13/02 Q1024 BLU+BLU+ LOWI 060920Z 26009KT CAVOK 15/M01 Q1024 NOSIG EDVK 060920Z 14006KT 110V170 CAVOK 15/M00 Q1021 EDHK 060920Z 16007KT CAVOK 13/01 Q1020 LOWK 060920Z VRB02KT 9999 FEW060 12/01 Q1030 NOSIG EDDK 060920Z 18013KT 150V210 CAVOK 19/01 Q1020 NOSIG EDDP 060920Z 16007KT 120V180 CAVOK 15/01 Q1023 NOSIG LOWL 060920Z 08007KT 050V130 CAVOK 17/01 Q1025 NOSIG LSZA 060920Z AUTO 20004KT CAVOK 15/03 Q1028 EDHL 060920Z 14009KT 110V180 CAVOK 14/01 Q1021 LIML 060920Z AUTO 16003KT 090V200 9999 NCD 17/01 Q1027 LFML 060930Z AUTO 26005KT CAVOK 17/07 Q1025 BECMG 18012KT LFMT 060930Z AUTO 08009KT CAVOK 17/07 Q1025 TEMPO 14010KT EDLN 060920Z 20007KT 150V240 CAVOK 18/03 Q1019 EDDM 060920Z 24006KT 210V290 CAVOK 14/04 Q1024 NOSIG EDDG 060920Z 18006KT 150V210 CAVOK 18/03 Q1019 NOSIG ETSN 060920Z 23006KT 9999 13/02 Q1024 BLU+BLU+ ETHN 060920Z 29004KT 9999 15/00 Q1023 BLU+BLU+ LFMN 060930Z VRB02KT CAVOK 19/01 Q1025 NOSIG EDDN 060920Z 20005KT 120V250 CAVOK 14/00 Q1024 NOSIG EDMO 060920Z 23008KT CAVOK 16/02 Q1024 LIPR 060920Z 29010KT 270V330 CAVOK 16/06 Q1026 EDDR 060920Z 23011KT 190V260 CAVOK 16/03 Q1023 NOSIG LOWS 060920Z 14013KT 110V170 CAVOK 18/M03 Q1023 NOSIG LSGS 060920Z VRB01KT CAVOK 16/M03 Q1025 EDDS 060920Z VRB03KT CAVOK 16/04 Q1023 NOSIG LFTH 060930Z AUTO 12006KT 090V160 CAVOK 19/05 Q1025 NOSIG LIVT 060855Z /////KT CAVOK 20/04 Q1025 RMK SKC QUK 3 QUL 1 NE VIS MAR 20 KM VIS MIN 9999 LIMF 060920Z 08004KT 010V120 CAVOK 15/02 Q1028 LIPI 060855Z 03013KT CAVOK 19/02 Q1026 RMK SKC VIS MIN 9999 WIND THR06 07014KT WIND THR24 06014KT BLU LIPZ 060920Z 08011KT CAVOK 19/02 Q1027 NOSIG LIPX 060920Z 07011KT 030V100 CAVOK 19/M00 Q1027 LOWW 060920Z 14017KT CAVOK 14/00 Q1029 NOSIG LSZH 060920Z 20004KT 130V240 CAVOK 16/03 Q1024 NOSIG

METAR Messwerte

Klicken Sie auf einen Ort, um die 36h-Historie abzurufen

Ort
m ü. NN
Zeit Temperatur Taupunkt Rel.
Luftfeuchte
Luftdruck:
Altimeter
NN
Station
Wind in Beaufort
(Knoten)
Sichtweite
(Meter)
Wolken
(Meter über Grund)
Wettererscheinung
Ansbach
467
Mo 06.04. 10:5613144 %1023
1024
968
Windstill>= 10000  
Augsburg
463
Mo 06.04. 11:2014347 %1024
1024
969
SW 2 (3)
SSO - NW
>= 10000Nicht signifikant 
Bad Windsheim / Illesheim
325
Mo 06.04. 10:5614347 %1024
1024
985
Windstill>= 10000  
Berlin-Tegel
37
Mo 06.04. 11:2016-131 %1024
1024
1020
SSO 4 (12)>= 10000Nicht signifikant 
Bern/Belp
505
Mo 06.04. 11:2014244 %1024
1024
964
N 2 (5)
WNW - NNO
>= 10000Nicht signifikant 
Bozen
241
Mo 06.04. 10:5013144 %1029
1029
1000
Uml 1 (2)>= 10000Nicht signifikant 
Braunschweig
88
Mo 06.04. 11:2016034 %1021
1021
1010
S 3 (7)
SO - SW
>= 10000Nicht signifikant 
Bremen
5
Mo 06.04. 11:2015344 %1019
1019
1018
SO 3 (9)>= 10000Nicht signifikant 
Cannes
9
Mo 06.04. 11:3021126 %1025
1025
1024
SSO 2 (4)
ONO - SSW
>= 10000Nicht signifikant 
Dortmund/Wickede
127
Mo 06.04. 11:2019232 %1019
1019
1004
S 4 (14)
SSO - SSW
>= 10000  
Dresden-Klotzsche
226
Mo 06.04. 11:2016-131 %1024
1024
997
S 4 (12)
SO - SSW
Bald möglich:
SSO 4 (15) - 6 (25)
>= 10000Nicht signifikant 
Düsseldorf
44
Mo 06.04. 11:2018439 %1019
1019
1014
S 4 (12)
OSO - S
>= 10000Nicht signifikant 
Erfurt-Bindersleben
323
Mo 06.04. 11:2014347 %1022
1022
984
N 2 (3)
NNW - O
>= 10000Nicht signifikant 
Florenz
38
Mo 06.04. 11:2020332 %1024
1024
1019
NNO 4 (12)
N - ONO
>= 10000Nicht signifikant 
Frankfurt
113
Mo 06.04. 11:2015241 %1023
1023
1009
SSW 2 (5)
SO - W
>= 10000Nicht signifikant 
Friedrichshafen
424
Mo 06.04. 11:2014451 %1024
1024
974
Uml 1 (2)>= 10000Nicht signifikant 
Fritzlar
181
Mo 06.04. 11:2015241 %1022
1022
1000
SSO 3 (8)>= 10000  
Genua
3
Mo 06.04. 11:2020128 %1025
1025
1025
NNO 4 (11)
N - ONO
>= 10000Nicht signifikant 
Grafenwöhr
415
Mo 06.04. 10:5613-138 %1023
1023
974
O 2 (4)>= 10000  
Graz-Thalerhof
347
Mo 06.04. 11:2014-038 %1030
1030
988
Uml 2 (3)>= 10000Leicht bewölkt (1800) 
Hamburg-Fuhlsbüttel
16
Mo 06.04. 11:2015344 %1020
1020
1018
SSO 3 (10)>= 10000Nicht signifikant 
Hannover
54
Mo 06.04. 11:2016136 %1020
1020
1013
SSO 3 (7)
OSO - SSW
>= 10000Nicht signifikant 
Hof
568
Mo 06.04. 11:2013-138 %1023
1024
956
S 2 (5)
SO - WNW
>= 10000Nicht signifikant 
Hohenfels
442
Mo 06.04. 10:5614-136 %1024
1024
972
OSO 2 (5)>= 10000  
Ingolstadt
370
Mo 06.04. 11:2013247 %1024
1024
980
W 2 (6)>= 10000  
Innsbruck
581
Mo 06.04. 11:2015-133 %1024
1024
956
W 3 (9)>= 10000Nicht signifikant 
Kassel/Calden
285
Mo 06.04. 11:2015-036 %1021
1021
987
SO 2 (6)
OSO - S
>= 10000Nicht signifikant 
Kiel
31
Mo 06.04. 11:2013144 %1020
1020
1016
SSO 3 (7)>= 10000Nicht signifikant 
Klagenfurt
441
Mo 06.04. 11:2012147 %1030
1031
977
Uml 1 (2)>= 10000Leicht bewölkt (1800) 
Köln/Bonn
99
Mo 06.04. 11:2019130 %1020
1020
1008
S 4 (13)
SSO - SSW
>= 10000Nicht signifikant 
Leipzig-Schkeuditz
149
Mo 06.04. 11:2015139 %1023
1023
1005
SSO 3 (7)
OSO - S
>= 10000Nicht signifikant 
Linz/Hörsching
313
Mo 06.04. 11:2017134 %1025
1025
988
O 3 (7)
NO - SO
>= 10000Nicht signifikant 
Lugano
276
Mo 06.04. 11:2015344 %1028
1028
995
SSW 2 (4)>= 10000Nicht signifikant 
Lübeck-Blankensee
16
Mo 06.04. 11:2014141 %1021
1021
1019
SO 3 (9)
OSO - S
>= 10000Nicht signifikant 
Mailand
103
Mo 06.04. 11:2017134 %1027
1027
1015
SSO 2 (3)
O - SSW
>= 10000  
Marseille/Marignane
36
Mo 06.04. 11:3017752 %1025
1025
1021
W 2 (5)
Bald Übergang zu:
S 4 (12)
>= 10000Nicht signifikant 
Montpellier
6
Mo 06.04. 11:3017752 %1025
1025
1024
O 3 (9)
Bald möglich:
SO 3 (10)
>= 10000Nicht signifikant 
Mönchengladbach
38
Mo 06.04. 11:2018337 %1019
1019
1014
SSW 3 (7)
SSO - WSW
>= 10000Nicht signifikant 
München
447
Mo 06.04. 11:2014451 %1024
1024
971
WSW 2 (6)
SSW - WNW
>= 10000Nicht signifikant 
Münster/Osnabrück
52
Mo 06.04. 11:2018337 %1019
1019
1013
S 2 (6)
SSO - SSW
>= 10000Nicht signifikant 
Neuburg/Donau
387
Mo 06.04. 11:2013247 %1024
1024
978
SW 2 (6)>= 10000  
Niederstetten
473
Mo 06.04. 11:2015036 %1023
1023
967
WNW 2 (4)>= 10000  
Nizza
10
Mo 06.04. 11:3019130 %1025
1025
1024
Uml 1 (2)>= 10000Nicht signifikant 
Nürnberg
312
Mo 06.04. 11:2014038 %1024
1024
987
SSW 2 (5)
OSO - WSW
>= 10000Nicht signifikant 
Oberpfaffenhofen
600
Mo 06.04. 11:2016239 %1024
1024
953
SW 3 (8)>= 10000Nicht signifikant 
Rimini
13
Mo 06.04. 11:2016651 %1026
1026
1024
WNW 3 (10)
W - NNW
>= 10000Nicht signifikant 
Saarbrücken/Ensheim
320
Mo 06.04. 11:2016342 %1023
1023
985
SW 4 (11)
S - W
>= 10000Nicht signifikant 
Salzburg
450
Mo 06.04. 11:2018-324 %1023
1023
970
SO 4 (13)
OSO - S
>= 10000Nicht signifikant 
Sion
481
Mo 06.04. 11:2016-327 %1025
1025
968
Uml 1 (1)>= 10000Nicht signifikant 
Stuttgart
419
Mo 06.04. 11:2016445 %1023
1023
973
Uml 2 (3)>= 10000Nicht signifikant 
Toulon
4
Mo 06.04. 11:3019540 %1025
1025
1025
OSO 2 (6)
O - SSO
>= 10000Nicht signifikant 
Triest
20
Mo 06.04. 10:5520435 %1025
1025
1023
 >= 10000Nicht signifikant 
Turin
287
Mo 06.04. 11:2015241 %1028
1028
994
O 2 (4)
N - OSO
>= 10000Nicht signifikant 
Udine/Rivolto
53
Mo 06.04. 10:5519232 %1026
1026
1020
NNO 4 (13)>= 10000Nicht signifikant 
Venedig
6
Mo 06.04. 11:2019232 %1027
1027
1026
O 4 (11)>= 10000Nicht signifikant 
Verona/Villafranca
68
Mo 06.04. 11:2019-028 %1027
1027
1019
ONO 4 (11)
NNO - O
>= 10000Nicht signifikant 
Wien/Schwechat
190
Mo 06.04. 11:2014038 %1029
1029
1006
SO 5 (17)>= 10000Nicht signifikant 
Zürich-Kloten
432
Mo 06.04. 11:2016342 %1024
1024
973
SSW 2 (4)
SO - WSW
>= 10000Nicht signifikant 

Altimeter: Einstellung am Altimeter (Höhenmesser), die Höhe 0 muss auf diesen Luftdruckwert zeigen, damit das Gerät die Stationshöhe richtig anzeigt.

NN: Luftdruck reduziert auf "Normal Null", auf Meereshöhe, dieser von der Temperatur abhängige Wert wird bisweilen unkorrekt einfach als "Luftdruck" bezeichnet. Eigentlich nur eine fiktive Größe, die es erlaubt, Stationen auf unterschiedlichen Höhen miteinander zu vergleichen.

Station: Realer Luftdruck an der Station.